createdAt,value
2019-05-23T00:01:47.505Z,99.90
2019-05-23T00:04:35.048Z,99.90
2019-05-23T00:07:09.837Z,99.90
2019-05-23T00:09:42.219Z,99.90
2019-05-23T00:12:30.969Z,99.90
2019-05-23T00:15:04.338Z,99.90
2019-05-23T00:17:35.663Z,99.90
2019-05-23T00:20:06.788Z,99.90
2019-05-23T00:22:40.830Z,99.90
2019-05-23T00:25:12.922Z,99.90
2019-05-23T00:27:46.079Z,99.90
2019-05-23T00:30:30.427Z,99.90
2019-05-23T00:33:01.502Z,99.90
2019-05-23T00:35:37.044Z,99.90
2019-05-23T00:38:14.765Z,99.90
2019-05-23T00:40:46.604Z,99.90
2019-05-23T00:43:16.714Z,99.90
2019-05-23T00:45:46.885Z,99.90
2019-05-23T00:48:17.627Z,99.90
2019-05-23T00:50:49.032Z,99.90
2019-05-23T00:53:19.448Z,99.90
2019-05-23T00:55:59.108Z,99.90
2019-05-23T00:58:30.552Z,99.90
2019-05-23T01:01:02.695Z,99.90
2019-05-23T01:03:33.796Z,99.90
2019-05-23T01:06:04.521Z,99.90
2019-05-23T01:08:35.867Z,99.90
2019-05-23T01:11:07.870Z,99.90
2019-05-23T01:13:40.395Z,99.90
2019-05-23T01:16:11.975Z,99.90
2019-05-23T01:18:43.771Z,99.90
2019-05-23T01:21:31.999Z,99.90
2019-05-23T01:24:07.188Z,99.90
2019-05-23T01:26:40.311Z,99.90
2019-05-23T01:29:11.427Z,99.90
2019-05-23T01:31:43.261Z,99.90
2019-05-23T01:34:14.168Z,99.90
2019-05-23T01:36:51.706Z,99.90
2019-05-23T01:39:23.179Z,99.90
2019-05-23T01:41:53.928Z,99.90
2019-05-23T01:44:28.900Z,99.90
2019-05-23T01:47:01.745Z,99.90
2019-05-23T01:49:37.238Z,99.90
2019-05-23T01:52:09.161Z,99.90
2019-05-23T01:54:43.719Z,99.90
2019-05-23T01:57:16.177Z,99.90
2019-05-23T02:00:19.296Z,99.90
2019-05-23T02:02:56.885Z,99.90
2019-05-23T02:05:32.134Z,99.90
2019-05-23T02:08:02.480Z,99.90
2019-05-23T02:10:33.489Z,99.90
2019-05-23T02:13:04.120Z,99.90
2019-05-23T02:15:35.127Z,99.90
2019-05-23T02:18:06.501Z,99.90
2019-05-23T02:20:39.490Z,99.90
2019-05-23T02:23:11.399Z,99.90
2019-05-23T02:25:42.936Z,99.90
2019-05-23T02:28:15.625Z,99.90
2019-05-23T02:30:46.065Z,99.90
2019-05-23T02:33:16.386Z,99.90
2019-05-23T02:35:52.315Z,99.90
2019-05-23T02:38:40.769Z,99.90
2019-05-23T02:41:21.784Z,99.90
2019-05-23T02:43:55.221Z,99.90
2019-05-23T02:46:34.659Z,99.90
2019-05-23T02:49:07.544Z,99.90
2019-05-23T02:51:38.941Z,99.90
2019-05-23T02:54:12.169Z,99.90
2019-05-23T02:56:45.876Z,99.90
2019-05-23T02:59:39.292Z,99.90
2019-05-23T03:03:02.699Z,99.90
2019-05-23T03:05:37.358Z,99.90
2019-05-23T03:08:10.421Z,99.90
2019-05-23T03:11:19.265Z,99.90
2019-05-23T03:13:49.745Z,99.90
2019-05-23T03:16:22.812Z,99.90
2019-05-23T03:18:59.998Z,99.90
2019-05-23T03:21:31.127Z,99.90
2019-05-23T03:24:01.830Z,99.90
2019-05-23T03:27:05.451Z,99.90
2019-05-23T03:29:38.252Z,99.90
2019-05-23T03:32:39.433Z,99.90
2019-05-23T03:35:14.281Z,99.90
2019-05-23T03:37:44.779Z,99.90
2019-05-23T03:40:17.242Z,99.90
2019-05-23T03:42:47.190Z,99.90
2019-05-23T03:45:24.015Z,99.90
2019-05-23T03:47:56.256Z,99.90
2019-05-23T03:50:29.936Z,99.90
2019-05-23T03:53:07.737Z,99.90
2019-05-23T03:55:41.890Z,99.90
2019-05-23T03:58:15.291Z,99.90
2019-05-23T04:00:50.393Z,99.90
2019-05-23T04:03:21.142Z,99.90
2019-05-23T04:05:53.777Z,99.90
2019-05-23T04:08:25.157Z,99.90
2019-05-23T04:11:02.762Z,99.90
2019-05-23T04:13:35.343Z,99.90
2019-05-23T04:16:05.428Z,99.90
2019-05-23T04:18:35.410Z,99.90
2019-05-23T04:21:07.523Z,99.90
2019-05-23T04:23:37.250Z,99.90
2019-05-23T04:26:07.604Z,99.90
2019-05-23T04:28:37.596Z,99.90
2019-05-23T04:31:07.790Z,99.90
2019-05-23T04:33:38.214Z,99.90
2019-05-23T04:36:10.934Z,99.90
2019-05-23T04:38:41.690Z,99.90
2019-05-23T04:41:11.673Z,99.90
2019-05-23T04:43:43.201Z,99.90
2019-05-23T04:46:13.564Z,99.90
2019-05-23T04:48:43.640Z,99.90
2019-05-23T04:51:15.236Z,99.90
2019-05-23T04:53:45.977Z,99.90
2019-05-23T04:56:16.271Z,99.90
2019-05-23T04:58:47.144Z,99.90
2019-05-23T05:01:19.076Z,99.90
2019-05-23T05:03:51.342Z,99.90
2019-05-23T05:06:21.777Z,99.90
2019-05-23T05:08:54.673Z,99.90
2019-05-23T05:11:28.049Z,99.90
2019-05-23T05:13:57.145Z,99.90
2019-05-23T05:16:27.663Z,99.90
2019-05-23T05:19:01.212Z,99.90
2019-05-23T05:21:30.941Z,99.90
2019-05-23T05:24:00.852Z,99.90
2019-05-23T05:26:31.603Z,99.90
2019-05-23T05:29:01.598Z,99.90
2019-05-23T05:31:33.307Z,99.90
2019-05-23T05:34:04.794Z,99.90
2019-05-23T05:36:35.457Z,99.90
2019-05-23T05:39:08.294Z,99.90
2019-05-23T05:41:39.315Z,99.90
2019-05-23T05:44:11.856Z,99.90
2019-05-23T05:46:44.591Z,99.90
2019-05-23T05:49:20.819Z,99.90
2019-05-23T05:51:50.737Z,99.90
2019-05-23T05:54:21.166Z,99.90
2019-05-23T05:56:51.533Z,99.90
2019-05-23T05:59:21.587Z,99.90
2019-05-23T06:01:53.538Z,99.90
2019-05-23T06:04:23.775Z,99.90
2019-05-23T06:07:19.008Z,99.90
2019-05-23T06:09:50.427Z,99.90
2019-05-23T06:12:22.228Z,99.90
2019-05-23T06:14:52.378Z,99.90
2019-05-23T06:17:23.315Z,99.90
2019-05-23T06:19:55.570Z,99.90
2019-05-23T06:22:26.101Z,99.90
2019-05-23T06:24:59.229Z,99.90
2019-05-23T06:27:30.150Z,99.90
2019-05-23T06:30:00.604Z,99.90
2019-05-23T06:32:31.746Z,99.90
2019-05-23T06:35:02.504Z,99.90
2019-05-23T06:37:34.290Z,99.90
2019-05-23T06:40:06.801Z,99.90
2019-05-23T06:42:36.705Z,99.90
2019-05-23T06:45:09.808Z,99.90
2019-05-23T06:47:40.724Z,99.90
2019-05-23T06:50:19.382Z,98.80
2019-05-23T06:52:59.998Z,97.40
2019-05-23T06:55:30.497Z,96.90
2019-05-23T06:58:02.505Z,95.10
2019-05-23T07:00:34.909Z,93.90
2019-05-23T07:03:06.450Z,95.20
2019-05-23T07:05:37.721Z,89.60
2019-05-23T07:08:08.249Z,87.60
2019-05-23T07:10:40.926Z,84.80
2019-05-23T07:13:12.324Z,79.00
2019-05-23T07:15:46.785Z,77.10
2019-05-23T07:18:16.697Z,70.00
2019-05-23T07:20:49.151Z,65.40
2019-05-23T07:23:19.263Z,64.50
2019-05-23T07:25:56.570Z,63.40
2019-05-23T07:28:29.353Z,62.40
2019-05-23T07:30:59.694Z,62.60
2019-05-23T07:33:33.261Z,63.20
2019-05-23T07:36:04.319Z,60.00
2019-05-23T07:38:34.592Z,60.70
2019-05-23T07:41:05.247Z,60.10
2019-05-23T07:43:35.342Z,60.10
2019-05-23T07:46:05.640Z,58.80
2019-05-23T07:48:36.408Z,60.30
2019-05-23T07:51:12.410Z,61.60
2019-05-23T07:54:01.310Z,59.80
2019-05-23T07:56:37.246Z,58.30
2019-05-23T07:59:09.245Z,55.80
2019-05-23T08:01:42.895Z,52.50
2019-05-23T08:04:22.028Z,51.10
2019-05-23T08:06:51.714Z,51.70
2019-05-23T08:09:28.730Z,52.50
2019-05-23T08:12:09.609Z,52.30
2019-05-23T08:14:45.088Z,50.90
2019-05-23T08:17:15.430Z,49.00
2019-05-23T08:19:50.184Z,48.90
2019-05-23T08:22:19.642Z,47.50
2019-05-23T08:24:57.926Z,48.20
2019-05-23T08:27:28.292Z,47.50
2019-05-23T08:30:01.976Z,48.00
2019-05-23T08:32:33.702Z,47.30
2019-05-23T08:35:04.244Z,50.40
2019-05-23T08:37:34.750Z,50.90
2019-05-23T08:40:07.723Z,48.10
2019-05-23T08:42:38.390Z,47.50
2019-05-23T08:45:10.542Z,48.20
2019-05-23T08:47:40.549Z,46.30
2019-05-23T08:50:14.347Z,45.00
2019-05-23T08:52:49.407Z,44.90
2019-05-23T08:55:26.674Z,44.40
2019-05-23T08:57:57.159Z,45.10
2019-05-23T09:00:47.327Z,45.70
2019-05-23T09:03:22.152Z,44.60
2019-05-23T09:06:45.570Z,43.90
2019-05-23T09:09:29.691Z,43.30
2019-05-23T09:12:10.652Z,42.10
2019-05-23T09:14:41.242Z,41.80
2019-05-23T09:17:17.322Z,41.10
2019-05-23T09:19:50.328Z,40.00
2019-05-23T09:22:24.851Z,38.10
2019-05-23T09:25:05.943Z,38.10
2019-05-23T09:27:39.026Z,37.40
2019-05-23T09:30:11.810Z,37.90
2019-05-23T09:32:50.082Z,39.40
2019-05-23T09:35:22.402Z,39.80
2019-05-23T09:37:52.955Z,38.50
2019-05-23T09:40:29.301Z,39.10
2019-05-23T09:43:02.146Z,39.70
2019-05-23T09:45:38.356Z,40.30
2019-05-23T09:48:13.380Z,39.90
2019-05-23T09:50:57.048Z,41.20
2019-05-23T09:53:32.148Z,43.70
2019-05-23T09:56:11.349Z,40.30
2019-05-23T09:58:43.718Z,39.70
2019-05-23T10:01:15.260Z,40.70
2019-05-23T10:03:53.504Z,40.60
2019-05-23T10:06:36.801Z,42.10
2019-05-23T10:09:21.552Z,43.80
2019-05-23T10:12:00.467Z,42.30
2019-05-23T10:14:33.861Z,41.60
2019-05-23T10:17:06.585Z,41.00
2019-05-23T10:19:41.459Z,41.10
2019-05-23T10:22:13.725Z,42.70
2019-05-23T10:24:43.846Z,39.50
2019-05-23T10:27:15.926Z,39.20
2019-05-23T10:29:46.479Z,39.90
2019-05-23T10:32:17.481Z,40.30
2019-05-23T10:34:49.056Z,38.90
2019-05-23T10:37:23.677Z,37.00
2019-05-23T10:40:02.808Z,37.20
2019-05-23T10:42:33.000Z,37.90
2019-05-23T10:45:05.875Z,37.70
2019-05-23T10:47:36.901Z,39.80
2019-05-23T10:50:09.989Z,42.20
2019-05-23T10:52:54.378Z,41.20
2019-05-23T10:55:25.270Z,40.00
2019-05-23T10:58:00.160Z,39.70
2019-05-23T11:00:38.135Z,38.10
2019-05-23T11:03:13.915Z,39.60
2019-05-23T11:05:51.187Z,39.00
2019-05-23T11:08:27.602Z,39.50
2019-05-23T11:10:55.863Z,39.20
2019-05-23T11:13:34.679Z,40.60
2019-05-23T11:16:10.322Z,38.80
2019-05-23T11:18:45.399Z,38.90
2019-05-23T11:21:16.345Z,38.80
2019-05-23T11:23:53.529Z,36.80
2019-05-23T11:26:34.280Z,37.30
2019-05-23T11:29:06.708Z,38.50
2019-05-23T11:31:38.677Z,40.60
2019-05-23T11:34:12.592Z,39.80
2019-05-23T11:36:45.529Z,39.50
2019-05-23T11:39:18.664Z,40.40
2019-05-23T11:41:58.341Z,40.70
2019-05-23T11:44:37.584Z,40.20
2019-05-23T11:47:09.639Z,40.80
2019-05-23T11:49:42.502Z,42.40
2019-05-23T11:52:23.267Z,43.10
2019-05-23T11:54:57.954Z,42.40
2019-05-23T11:57:32.591Z,40.80
2019-05-23T12:00:06.568Z,41.10
2019-05-23T12:02:39.783Z,41.90
2019-05-23T12:05:17.132Z,41.60
2019-05-23T12:07:50.825Z,41.60
2019-05-23T12:10:27.165Z,40.80
2019-05-23T12:12:57.331Z,39.90
2019-05-23T12:15:29.357Z,39.90
2019-05-23T12:17:59.576Z,39.90
2019-05-23T12:20:32.802Z,39.00
2019-05-23T12:23:10.878Z,39.00
2019-05-23T12:25:45.131Z,38.50
2019-05-23T12:28:16.097Z,38.60
2019-05-23T12:30:46.224Z,37.80
2019-05-23T12:33:16.498Z,37.30
2019-05-23T12:35:46.347Z,38.10
2019-05-23T12:38:19.040Z,37.90
2019-05-23T12:40:51.552Z,37.50
2019-05-23T12:43:23.839Z,36.70
2019-05-23T12:45:54.292Z,36.30
2019-05-23T12:48:32.933Z,35.90
2019-05-23T12:51:03.948Z,35.80
2019-05-23T12:53:37.708Z,36.00
2019-05-23T12:56:09.698Z,36.80
2019-05-23T12:58:42.610Z,37.20
2019-05-23T13:01:14.847Z,37.10
2019-05-23T13:03:50.135Z,36.30
2019-05-23T13:06:21.009Z,36.70
2019-05-23T13:08:56.339Z,36.10
2019-05-23T13:11:26.941Z,36.00
2019-05-23T13:14:02.370Z,36.50
2019-05-23T13:16:33.503Z,37.30
2019-05-23T13:19:05.198Z,37.50
2019-05-23T13:21:41.254Z,37.20
2019-05-23T13:24:17.885Z,37.90
2019-05-23T13:26:53.192Z,37.90
2019-05-23T13:29:26.524Z,38.40
2019-05-23T13:34:48.775Z,39.10
2019-05-23T13:37:23.596Z,39.40
2019-05-23T13:39:57.807Z,39.70
2019-05-23T13:42:29.600Z,39.30
2019-05-23T13:45:12.167Z,40.10
2019-05-23T13:47:42.540Z,40.20
2019-05-23T13:50:16.944Z,40.30
2019-05-23T13:52:49.577Z,40.10
2019-05-23T13:55:21.108Z,40.10
2019-05-23T13:57:51.861Z,40.60
2019-05-23T14:00:25.171Z,41.20
2019-05-23T14:03:01.548Z,41.80
2019-05-23T14:05:32.207Z,41.50
2019-05-23T14:08:12.514Z,41.70
2019-05-23T14:10:35.084Z,41.60
2019-05-23T14:13:06.635Z,41.50
2019-05-23T14:15:46.666Z,41.90
2019-05-23T14:18:22.589Z,42.00
2019-05-23T14:20:53.049Z,43.50
2019-05-23T14:23:30.925Z,43.40
2019-05-23T14:26:07.994Z,43.80
2019-05-23T14:28:43.901Z,42.60
2019-05-23T14:31:22.269Z,43.10
2019-05-23T14:34:07.257Z,43.90
2019-05-23T14:36:54.680Z,43.20
2019-05-23T14:39:34.192Z,42.70
2019-05-23T14:42:39.822Z,43.40
2019-05-23T14:45:27.865Z,42.80
2019-05-23T14:48:18.041Z,42.90
2019-05-23T14:51:06.041Z,43.40
2019-05-23T14:53:38.421Z,43.60
2019-05-23T14:56:12.602Z,43.80
2019-05-23T14:58:45.717Z,43.30
2019-05-23T15:01:18.827Z,43.40
2019-05-23T15:03:50.060Z,43.70
2019-05-23T15:06:28.080Z,43.40
2019-05-23T15:09:21.495Z,43.10
2019-05-23T15:11:51.533Z,42.90
2019-05-23T15:14:24.340Z,42.70
2019-05-23T15:16:56.094Z,42.20
2019-05-23T15:19:41.943Z,42.30
2019-05-23T15:22:01.415Z,42.00
2019-05-23T15:24:36.170Z,41.70
2019-05-23T15:27:07.133Z,41.80
2019-05-23T15:29:41.997Z,42.10
2019-05-23T15:32:19.690Z,42.40
2019-05-23T15:34:49.958Z,42.70
2019-05-23T15:37:28.699Z,42.80
2019-05-23T15:40:06.567Z,42.50
2019-05-23T15:42:38.956Z,42.00
2019-05-23T15:45:14.130Z,42.10
2019-05-23T15:47:47.473Z,42.30
2019-05-23T15:50:24.269Z,42.10
2019-05-23T15:53:23.642Z,42.40
2019-05-23T15:56:27.879Z,42.80
2019-05-23T15:59:13.399Z,42.60
2019-05-23T16:02:03.231Z,43.30
2019-05-23T16:04:38.866Z,42.80
2019-05-23T16:07:10.920Z,42.60
2019-05-23T16:09:48.349Z,42.30
2019-05-23T16:12:21.482Z,42.30
2019-05-23T16:15:01.993Z,42.50
2019-05-23T16:17:38.110Z,42.20
2019-05-23T16:20:12.348Z,41.90
2019-05-23T16:22:42.534Z,42.60
2019-05-23T16:25:18.422Z,42.80
2019-05-23T16:27:49.343Z,43.20
2019-05-23T16:30:20.565Z,42.60
2019-05-23T16:32:51.617Z,42.60
2019-05-23T16:35:25.304Z,43.30
2019-05-23T16:37:55.324Z,43.00
2019-05-23T16:40:27.018Z,42.10
2019-05-23T16:43:04.894Z,42.10
2019-05-23T16:45:42.140Z,42.10
2019-05-23T16:48:14.996Z,42.00
2019-05-23T16:50:54.421Z,42.20
2019-05-23T16:53:35.636Z,42.30
2019-05-23T16:56:46.873Z,42.10
2019-05-23T16:59:26.804Z,42.20
2019-05-23T17:02:36.263Z,42.50
2019-05-23T17:05:24.993Z,41.70
2019-05-23T17:08:30.983Z,42.30
2019-05-23T17:11:29.520Z,41.80
2019-05-23T17:14:13.795Z,43.00
2019-05-23T17:17:07.762Z,42.30
2019-05-23T17:20:18.959Z,42.30
2019-05-23T17:23:03.461Z,41.60
2019-05-23T17:25:54.973Z,41.30
2019-05-23T17:28:30.069Z,40.50
2019-05-23T17:31:06.738Z,39.30
2019-05-23T17:33:42.298Z,38.70
2019-05-23T17:36:15.469Z,38.20
2019-05-23T17:38:50.405Z,38.30
2019-05-23T17:41:21.969Z,38.00
2019-05-23T17:43:58.110Z,38.00
2019-05-23T17:46:29.372Z,37.50
2019-05-23T17:49:04.811Z,37.20
2019-05-23T17:51:59.216Z,37.30
2019-05-23T17:54:38.755Z,37.50
2019-05-23T17:57:15.553Z,37.40
2019-05-23T17:59:47.375Z,37.30
2019-05-23T18:02:18.268Z,37.10
2019-05-23T18:04:51.499Z,37.70
2019-05-23T18:07:28.351Z,38.00
2019-05-23T18:10:04.338Z,38.10
2019-05-23T18:12:49.743Z,37.90
2019-05-23T18:15:37.175Z,38.10
2019-05-23T18:18:15.389Z,37.80
2019-05-23T18:20:50.555Z,38.50
2019-05-23T18:23:22.901Z,38.60
2019-05-23T18:26:01.698Z,39.10
2019-05-23T18:28:39.571Z,39.00
2019-05-23T18:31:29.984Z,39.70
2019-05-23T18:34:10.077Z,39.70
2019-05-23T18:36:43.339Z,40.10
2019-05-23T18:39:19.789Z,40.30
2019-05-23T18:41:55.430Z,40.60
2019-05-23T18:44:29.690Z,40.80
2019-05-23T18:47:04.128Z,41.00
2019-05-23T18:49:37.499Z,41.30
2019-05-23T18:52:10.325Z,41.90
2019-05-23T18:54:50.678Z,42.20
2019-05-23T18:57:34.944Z,42.80
2019-05-23T19:00:16.061Z,43.50
2019-05-23T19:02:48.955Z,43.90
2019-05-23T19:05:19.490Z,44.50
2019-05-23T19:07:53.967Z,45.00
2019-05-23T19:10:37.312Z,45.50
2019-05-23T19:13:08.979Z,45.70
2019-05-23T19:15:44.158Z,46.30
2019-05-23T19:18:34.304Z,46.10
2019-05-23T19:21:06.345Z,46.30
2019-05-23T19:23:53.102Z,45.80
2019-05-23T19:26:36.867Z,46.10
2019-05-23T19:29:20.340Z,46.20
2019-05-23T19:32:07.007Z,46.40
2019-05-23T19:34:44.996Z,46.60
2019-05-23T19:37:29.645Z,46.80
2019-05-23T19:40:18.570Z,47.10
2019-05-23T19:42:50.537Z,46.70
2019-05-23T19:45:21.764Z,46.80
2019-05-23T19:47:54.860Z,46.80
2019-05-23T19:50:29.347Z,47.40
2019-05-23T19:53:10.171Z,47.70
2019-05-23T19:55:41.844Z,47.40
2019-05-23T19:58:24.574Z,47.40
2019-05-23T20:01:03.831Z,47.90
2019-05-23T20:03:34.435Z,47.50
2019-05-23T20:06:13.480Z,47.90
2019-05-23T20:09:17.287Z,48.10
2019-05-23T20:12:01.299Z,48.50
2019-05-23T20:14:38.839Z,49.00
2019-05-23T20:17:15.111Z,49.20
2019-05-23T20:19:50.386Z,49.70
2019-05-23T20:22:38.444Z,49.30
2019-05-23T20:25:11.989Z,49.70
2019-05-23T20:27:46.640Z,49.80
2019-05-23T20:31:03.038Z,49.90
2019-05-23T20:33:34.341Z,50.10
2019-05-23T20:36:13.000Z,50.20
2019-05-23T20:38:59.729Z,50.30
2019-05-23T20:41:36.581Z,50.00
2019-05-23T20:44:18.803Z,49.90
2019-05-23T20:46:49.540Z,49.90
2019-05-23T20:49:33.426Z,49.40
2019-05-23T20:52:13.872Z,49.10
2019-05-23T20:54:49.159Z,48.80
2019-05-23T20:57:19.435Z,48.50
2019-05-23T20:59:57.876Z,48.50
2019-05-23T21:02:37.565Z,48.50
2019-05-23T21:05:10.312Z,48.40
2019-05-23T21:07:50.493Z,48.70
2019-05-23T21:10:49.173Z,48.00
2019-05-23T21:13:22.457Z,48.20
2019-05-23T21:15:57.736Z,47.90
2019-05-23T21:18:49.895Z,48.10
2019-05-23T21:21:22.970Z,47.90
2019-05-23T21:23:57.067Z,47.80
2019-05-23T21:26:28.301Z,47.60
2019-05-23T21:28:58.329Z,47.70
2019-05-23T21:31:36.364Z,47.80
2019-05-23T21:34:08.274Z,47.90
2019-05-23T21:36:38.486Z,48.20
2019-05-23T21:39:14.596Z,48.40
2019-05-23T21:41:55.224Z,48.90
2019-05-23T21:44:28.408Z,49.30
2019-05-23T21:46:58.473Z,49.50
2019-05-23T21:49:32.996Z,49.90
2019-05-23T21:52:03.162Z,49.80
2019-05-23T21:54:33.390Z,50.60
2019-05-23T21:57:16.316Z,50.50
2019-05-23T22:00:01.745Z,50.80
2019-05-23T22:02:50.036Z,51.00
2019-05-23T22:05:20.961Z,51.20
2019-05-23T22:07:51.499Z,51.00
2019-05-23T22:10:22.548Z,51.40
2019-05-23T22:13:03.769Z,51.80
2019-05-23T22:15:56.437Z,51.20
2019-05-23T22:18:44.326Z,51.80
2019-05-23T22:21:15.772Z,51.50
2019-05-23T22:23:47.940Z,51.50
2019-05-23T22:26:21.961Z,51.70
2019-05-23T22:28:53.754Z,52.10
2019-05-23T22:31:28.778Z,52.70
2019-05-23T22:34:04.835Z,54.70
2019-05-23T22:36:40.654Z,54.60
2019-05-23T22:40:39.639Z,56.30
2019-05-23T22:43:20.795Z,56.20
2019-05-23T22:45:41.311Z,57.20
2019-05-23T22:48:11.179Z,59.70
2019-05-23T22:50:46.592Z,60.10
2019-05-23T22:53:16.886Z,60.40
2019-05-23T22:55:48.753Z,62.20
2019-05-23T22:58:19.101Z,63.30
2019-05-23T23:00:50.096Z,64.10
2019-05-23T23:03:21.291Z,67.70
2019-05-23T23:05:51.651Z,70.60
2019-05-23T23:08:22.148Z,72.30
2019-05-23T23:10:52.017Z,73.10
2019-05-23T23:13:38.050Z,77.20
2019-05-23T23:16:01.791Z,79.50
2019-05-23T23:18:33.161Z,80.90
2019-05-23T23:21:05.056Z,82.90
2019-05-23T23:23:40.148Z,86.90
2019-05-23T23:26:15.856Z,89.00
2019-05-23T23:28:52.744Z,90.60
2019-05-23T23:31:22.880Z,91.00
2019-05-23T23:33:52.906Z,92.20
2019-05-23T23:36:25.645Z,92.30
2019-05-23T23:39:01.344Z,92.60
2019-05-23T23:41:40.229Z,93.90
2019-05-23T23:44:11.817Z,93.30
2019-05-23T23:47:02.359Z,95.00
2019-05-23T23:49:51.536Z,95.50
2019-05-23T23:52:39.352Z,95.20
2019-05-23T23:55:27.341Z,94.30
2019-05-23T23:57:59.520Z,95.10
